createdAt,value
2023-01-08T00:01:13.129Z,5.40
2023-01-08T00:03:40.659Z,5.34
2023-01-08T00:06:13.024Z,5.30
2023-01-08T00:08:39.825Z,5.30
2023-01-08T00:11:07.152Z,5.30
2023-01-08T00:13:34.480Z,5.30
2023-01-08T00:16:14.155Z,5.30
2023-01-08T00:18:41.274Z,5.30
2023-01-08T00:21:07.873Z,5.30
2023-01-08T00:23:35.475Z,5.30
2023-01-08T00:26:04.535Z,5.30
2023-01-08T00:28:31.718Z,5.30
2023-01-08T00:30:58.646Z,5.30
2023-01-08T00:33:25.377Z,5.30
2023-01-08T00:35:52.005Z,5.30
2023-01-08T00:38:18.687Z,5.30
2023-01-08T00:40:45.276Z,5.30
2023-01-08T00:43:11.910Z,5.30
2023-01-08T00:45:38.592Z,5.30
2023-01-08T00:48:06.276Z,5.30
2023-01-08T00:50:32.822Z,5.30
2023-01-08T00:52:59.446Z,5.30
2023-01-08T00:55:25.997Z,5.24
2023-01-08T00:57:52.537Z,5.20
2023-01-08T01:00:19.179Z,5.20
2023-01-08T01:02:45.970Z,5.20
2023-01-08T01:05:17.536Z,5.12
2023-01-08T01:07:45.270Z,5.10
2023-01-08T01:10:14.120Z,5.10
2023-01-08T01:12:41.417Z,5.10
2023-01-08T01:15:12.804Z,5.06
2023-01-08T01:17:41.671Z,5.00
2023-01-08T01:20:12.118Z,5.00
2023-01-08T01:22:38.956Z,5.00
2023-01-08T01:25:07.450Z,5.00
2023-01-08T01:27:34.075Z,5.00
2023-01-08T01:30:01.280Z,5.00
2023-01-08T01:32:27.872Z,5.00
2023-01-08T01:34:54.423Z,5.00
2023-01-08T01:37:21.014Z,5.00
2023-01-08T01:39:47.633Z,5.00
2023-01-08T01:42:55.812Z,5.00
2023-01-08T01:45:27.877Z,5.00
2023-01-08T01:48:08.709Z,4.94
2023-01-08T01:50:46.916Z,4.90
2023-01-08T01:53:34.886Z,4.90
2023-01-08T01:56:03.513Z,4.90
2023-01-08T01:58:32.226Z,4.90
2023-01-08T02:01:03.727Z,4.90
2023-01-08T02:03:36.000Z,4.88
2023-01-08T02:06:24.033Z,4.90
2023-01-08T02:09:03.262Z,4.90
2023-01-08T02:11:46.382Z,4.86
2023-01-08T02:14:42.974Z,4.80
2023-01-08T02:17:17.279Z,4.80
2023-01-08T02:19:58.605Z,4.80
2023-01-08T02:22:50.145Z,4.80
2023-01-08T02:25:51.307Z,4.72
2023-01-08T02:28:17.889Z,4.70
2023-01-08T02:30:46.109Z,4.70
2023-01-08T02:33:12.810Z,4.70
2023-01-08T02:35:55.895Z,4.70
2023-01-08T02:38:24.159Z,4.70
2023-01-08T02:41:10.095Z,4.70
2023-01-08T02:43:47.860Z,4.70
2023-01-08T02:46:27.176Z,4.70
2023-01-08T02:49:08.059Z,4.70
2023-01-08T02:51:42.405Z,4.70
2023-01-08T02:54:14.341Z,4.60
2023-01-08T02:56:46.912Z,4.60
2023-01-08T02:59:15.564Z,4.60
2023-01-08T03:01:43.632Z,4.60
2023-01-08T03:04:18.020Z,4.60
2023-01-08T03:06:45.865Z,4.60
2023-01-08T03:09:14.203Z,4.56
2023-01-08T03:11:57.783Z,4.50
2023-01-08T03:14:44.669Z,4.50
2023-01-08T03:17:34.609Z,4.50
2023-01-08T03:20:15.248Z,4.50
2023-01-08T03:22:46.814Z,4.44
2023-01-08T03:25:16.312Z,4.40
2023-01-08T03:27:48.933Z,4.40
2023-01-08T03:30:18.435Z,4.40
2023-01-08T03:32:47.015Z,4.32
2023-01-08T03:35:20.205Z,4.30
2023-01-08T03:37:55.564Z,4.30
2023-01-08T03:40:29.384Z,4.30
2023-01-08T03:42:57.854Z,4.24
2023-01-08T03:45:26.456Z,4.20
2023-01-08T03:47:54.979Z,4.20
2023-01-08T03:50:27.472Z,4.18
2023-01-08T03:52:54.130Z,4.10
2023-01-08T03:55:20.840Z,4.10
2023-01-08T03:57:47.407Z,4.10
2023-01-08T04:00:14.860Z,4.10
2023-01-08T04:02:44.129Z,4.10
2023-01-08T04:05:11.521Z,4.10
2023-01-08T04:07:38.288Z,4.10
2023-01-08T04:10:05.485Z,4.00
2023-01-08T04:12:32.172Z,4.00
2023-01-08T04:14:58.792Z,4.00
2023-01-08T04:17:25.509Z,4.00
2023-01-08T04:19:52.100Z,4.00
2023-01-08T04:22:18.688Z,4.00
2023-01-08T04:24:45.286Z,3.96
2023-01-08T04:27:11.894Z,3.90
2023-01-08T04:29:38.528Z,3.90
2023-01-08T04:32:05.257Z,3.90
2023-01-08T04:34:31.946Z,3.90
2023-01-08T04:36:59.203Z,3.90
2023-01-08T04:39:25.787Z,3.90
2023-01-08T04:41:52.361Z,3.92
2023-01-08T04:44:19.027Z,3.92
2023-01-08T04:46:45.778Z,3.92
2023-01-08T04:49:13.380Z,4.00
2023-01-08T04:51:40.366Z,4.00
2023-01-08T04:54:07.025Z,4.00
2023-01-08T04:56:33.740Z,3.92
2023-01-08T04:59:00.333Z,3.90
2023-01-08T05:01:28.720Z,3.90
2023-01-08T05:03:58.548Z,3.90
2023-01-08T05:06:29.349Z,3.90
2023-01-08T05:08:57.088Z,3.90
2023-01-08T05:11:24.500Z,3.90
2023-01-08T05:13:52.715Z,3.90
2023-01-08T05:16:19.499Z,3.90
2023-01-08T05:18:46.412Z,3.90
2023-01-08T05:21:13.836Z,3.90
2023-01-08T05:23:40.582Z,3.90
2023-01-08T05:26:07.575Z,3.90
2023-01-08T05:28:34.500Z,3.94
2023-01-08T05:31:01.182Z,4.00
2023-01-08T05:33:27.944Z,4.00
2023-01-08T05:35:54.590Z,4.00
2023-01-08T05:38:21.232Z,4.00
2023-01-08T05:40:47.841Z,4.00
2023-01-08T05:43:14.392Z,4.00
2023-01-08T05:45:41.025Z,4.00
2023-01-08T05:48:08.017Z,4.00
2023-01-08T05:50:35.505Z,4.00
2023-01-08T05:53:05.612Z,4.00
2023-01-08T05:55:32.183Z,4.00
2023-01-08T05:58:05.210Z,4.00
2023-01-08T06:00:33.987Z,4.00
2023-01-08T06:03:00.664Z,4.00
2023-01-08T06:05:27.395Z,4.00
2023-01-08T06:07:53.975Z,4.00
2023-01-08T06:10:20.485Z,4.04
2023-01-08T06:12:47.154Z,4.10
2023-01-08T06:15:13.767Z,4.10
2023-01-08T06:17:40.589Z,4.10
2023-01-08T06:20:08.051Z,4.10
2023-01-08T06:22:35.126Z,4.10
2023-01-08T06:25:02.151Z,4.10
2023-01-08T06:27:29.919Z,4.20
2023-01-08T06:29:56.643Z,4.20
2023-01-08T06:32:23.221Z,4.20
2023-01-08T06:34:49.801Z,4.20
2023-01-08T06:37:16.432Z,4.30
2023-01-08T06:39:42.983Z,4.30
2023-01-08T06:42:09.642Z,4.30
2023-01-08T06:44:36.228Z,4.30
2023-01-08T06:47:02.915Z,4.30
2023-01-08T06:49:29.580Z,4.30
2023-01-08T06:51:57.248Z,4.32
2023-01-08T06:54:23.871Z,4.38
2023-01-08T06:56:54.091Z,4.40
2023-01-08T06:59:22.099Z,4.40
2023-01-08T07:01:49.360Z,4.40
2023-01-08T07:04:17.354Z,4.40
2023-01-08T07:06:44.002Z,4.40
2023-01-08T07:09:15.343Z,4.48
2023-01-08T07:11:42.547Z,4.50
2023-01-08T07:14:09.417Z,4.50
2023-01-08T07:16:36.754Z,4.56
2023-01-08T07:19:03.548Z,4.60
2023-01-08T07:21:31.277Z,4.60
2023-01-08T07:23:59.481Z,4.60
2023-01-08T07:26:26.393Z,4.70
2023-01-08T07:28:53.055Z,4.70
2023-01-08T07:31:19.642Z,4.70
2023-01-08T07:33:46.385Z,4.80
2023-01-08T07:36:12.927Z,4.80
2023-01-08T07:38:39.469Z,4.88
2023-01-08T07:41:06.004Z,4.90
2023-01-08T07:43:32.719Z,4.94
2023-01-08T07:46:03.952Z,5.00
2023-01-08T07:48:30.737Z,5.00
2023-01-08T07:51:06.024Z,5.00
2023-01-08T07:53:33.422Z,5.10
2023-01-08T07:56:09.257Z,5.10
2023-01-08T07:58:36.300Z,5.10
2023-01-08T08:01:04.542Z,5.10
2023-01-08T08:03:31.840Z,5.10
2023-01-08T08:06:01.215Z,5.10
2023-01-08T08:08:27.779Z,5.20
2023-01-08T08:10:54.313Z,5.20
2023-01-08T08:13:20.901Z,5.28
2023-01-08T08:15:47.537Z,5.30
2023-01-08T08:18:14.110Z,5.34
2023-01-08T08:20:40.755Z,5.40
2023-01-08T08:23:13.912Z,5.48
2023-01-08T08:25:42.404Z,5.50
2023-01-08T08:28:11.142Z,5.60
2023-01-08T08:30:42.015Z,5.62
2023-01-08T08:33:09.908Z,5.70
2023-01-08T08:35:37.266Z,5.80
2023-01-08T08:38:04.809Z,5.90
2023-01-08T08:40:31.861Z,6.00
2023-01-08T08:43:01.302Z,6.10
2023-01-08T08:45:28.958Z,6.20
2023-01-08T08:47:56.027Z,6.30
2023-01-08T08:50:22.751Z,6.40
2023-01-08T08:52:49.388Z,6.46
2023-01-08T08:55:17.590Z,6.54
2023-01-08T08:57:47.173Z,6.60
2023-01-08T09:00:15.084Z,6.70
2023-01-08T09:02:42.065Z,6.80
2023-01-08T09:05:09.178Z,6.90
2023-01-08T09:07:36.637Z,6.92
2023-01-08T09:10:04.199Z,7.00
2023-01-08T09:12:30.766Z,7.10
2023-01-08T09:14:57.857Z,7.10
2023-01-08T09:17:25.957Z,7.20
2023-01-08T09:19:52.904Z,7.26
2023-01-08T09:22:20.225Z,7.30
2023-01-08T09:24:46.841Z,7.40
2023-01-08T09:27:14.663Z,7.50
2023-01-08T09:29:41.290Z,7.60
2023-01-08T09:32:08.960Z,7.60
2023-01-08T09:34:36.368Z,7.64
2023-01-08T09:37:04.333Z,7.70
2023-01-08T09:39:31.507Z,7.70
2023-01-08T09:42:01.634Z,7.80
2023-01-08T09:44:36.073Z,7.82
2023-01-08T09:47:03.681Z,8.00
2023-01-08T09:49:50.345Z,8.10
2023-01-08T09:52:17.002Z,8.30
2023-01-08T09:54:43.776Z,8.40
2023-01-08T09:57:18.984Z,8.60
2023-01-08T09:59:48.286Z,8.70
2023-01-08T10:02:22.285Z,8.90
2023-01-08T10:04:57.834Z,9.28
2023-01-08T10:07:27.755Z,9.84
2023-01-08T10:09:55.388Z,10.30
2023-01-08T10:12:28.327Z,10.72
2023-01-08T10:15:11.194Z,11.24
2023-01-08T10:17:41.966Z,11.70
2023-01-08T10:20:21.542Z,12.00
2023-01-08T10:22:50.109Z,12.40
2023-01-08T10:25:22.177Z,12.60
2023-01-08T10:27:51.242Z,12.70
2023-01-08T10:30:30.680Z,12.80
2023-01-08T10:33:05.593Z,12.80
2023-01-08T10:35:37.428Z,13.00
2023-01-08T10:38:04.487Z,13.30
2023-01-08T10:40:42.279Z,13.30
2023-01-08T10:43:15.608Z,13.40
2023-01-08T10:45:44.413Z,13.40
2023-01-08T10:48:18.374Z,13.30
2023-01-08T10:50:44.997Z,13.20
2023-01-08T10:53:28.940Z,12.98
2023-01-08T10:56:02.080Z,12.70
2023-01-08T10:58:30.234Z,12.52
2023-01-08T11:01:15.836Z,12.30
2023-01-08T11:03:43.002Z,12.00
2023-01-08T11:06:16.593Z,11.76
2023-01-08T11:09:00.910Z,11.52
2023-01-08T11:11:36.046Z,11.30
2023-01-08T11:14:11.943Z,11.12
2023-01-08T11:16:41.450Z,11.00
2023-01-08T11:19:26.575Z,10.90
2023-01-08T11:22:08.474Z,10.80
2023-01-08T11:24:38.898Z,10.70
2023-01-08T11:27:10.325Z,10.60
2023-01-08T11:29:48.484Z,10.60
2023-01-08T11:32:25.827Z,10.60
2023-01-08T11:35:01.452Z,10.50
2023-01-08T11:37:36.665Z,10.50
2023-01-08T11:40:13.594Z,10.50
2023-01-08T11:43:04.444Z,10.56
2023-01-08T11:45:56.412Z,10.60
2023-01-08T11:49:23.402Z,10.60
2023-01-08T11:52:02.722Z,10.60
2023-01-08T11:55:16.096Z,10.60
2023-01-08T11:58:26.712Z,10.70
2023-01-08T12:01:34.011Z,10.60
2023-01-08T12:04:25.733Z,10.70
2023-01-08T12:07:02.533Z,10.70
2023-01-08T12:10:01.961Z,10.70
2023-01-08T12:12:56.750Z,10.70
2023-01-08T12:15:51.300Z,10.68
2023-01-08T12:18:36.427Z,10.70
2023-01-08T12:21:21.070Z,10.60
2023-01-08T12:24:36.283Z,10.60
2023-01-08T12:27:56.514Z,10.58
2023-01-08T12:31:03.075Z,10.52
2023-01-08T12:33:46.536Z,10.56
2023-01-08T12:36:22.317Z,10.50
2023-01-08T12:38:58.155Z,10.52
2023-01-08T12:41:25.388Z,10.60
2023-01-08T12:44:03.765Z,10.60
2023-01-08T12:46:36.888Z,10.60
2023-01-08T12:49:08.299Z,10.60
2023-01-08T12:51:39.871Z,10.60
2023-01-08T12:54:23.570Z,10.60
2023-01-08T12:56:58.749Z,10.50
2023-01-08T12:59:56.229Z,10.50
2023-01-08T13:02:50.200Z,10.40
2023-01-08T13:05:19.816Z,10.40
2023-01-08T13:08:27.649Z,10.38
2023-01-08T13:10:55.799Z,10.30
2023-01-08T13:13:39.703Z,10.30
2023-01-08T13:16:28.315Z,10.30
2023-01-08T13:18:57.189Z,10.30
2023-01-08T13:21:43.719Z,10.30
2023-01-08T13:24:34.592Z,10.20
2023-01-08T13:27:20.611Z,10.20
2023-01-08T13:29:49.817Z,10.12
2023-01-08T13:32:25.390Z,10.16
2023-01-08T13:35:17.140Z,10.20
2023-01-08T13:37:47.195Z,10.20
2023-01-08T13:40:46.030Z,10.14
2023-01-08T13:43:21.564Z,10.20
2023-01-08T13:46:00.270Z,10.20
2023-01-08T13:48:31.012Z,10.20
2023-01-08T13:50:58.292Z,10.20
2023-01-08T13:53:25.183Z,10.20
2023-01-08T13:56:00.037Z,10.26
2023-01-08T13:58:37.118Z,10.30
2023-01-08T14:01:05.201Z,10.20
2023-01-08T14:03:38.894Z,10.20
2023-01-08T14:06:27.354Z,10.20
2023-01-08T14:09:04.229Z,10.20
2023-01-08T14:11:47.679Z,10.24
2023-01-08T14:14:17.715Z,10.30
2023-01-08T14:16:46.735Z,10.26
2023-01-08T14:19:25.151Z,10.30
2023-01-08T14:21:56.355Z,10.30
2023-01-08T14:24:25.530Z,10.30
2023-01-08T14:26:59.018Z,10.34
2023-01-08T14:29:30.079Z,10.40
2023-01-08T14:32:00.268Z,10.40
2023-01-08T14:34:31.056Z,10.40
2023-01-08T14:36:58.325Z,10.40
2023-01-08T14:39:31.064Z,10.40
2023-01-08T14:42:42.941Z,10.48
2023-01-08T14:45:32.359Z,10.50
2023-01-08T14:48:25.766Z,10.40
2023-01-08T14:51:16.756Z,10.40
2023-01-08T14:53:48.424Z,10.40
2023-01-08T14:56:24.132Z,10.30
2023-01-08T14:58:51.181Z,10.30
2023-01-08T15:01:19.032Z,10.30
2023-01-08T15:03:48.939Z,10.30
2023-01-08T15:06:31.572Z,10.30
2023-01-08T15:08:59.645Z,10.30
2023-01-08T15:11:31.251Z,10.30
2023-01-08T15:13:58.834Z,10.30
2023-01-08T15:16:34.240Z,10.30
2023-01-08T15:19:06.793Z,10.26
2023-01-08T15:21:35.103Z,10.20
2023-01-08T15:24:04.048Z,10.20
2023-01-08T15:26:31.364Z,10.20
2023-01-08T15:29:05.818Z,10.20
2023-01-08T15:31:47.152Z,10.16
2023-01-08T15:34:14.115Z,10.10
2023-01-08T15:36:40.868Z,10.00
2023-01-08T15:39:07.757Z,10.00
2023-01-08T15:41:56.414Z,9.92
2023-01-08T15:44:24.340Z,9.90
2023-01-08T15:46:54.444Z,9.90
2023-01-08T15:49:21.133Z,9.90
2023-01-08T15:51:49.996Z,9.90
2023-01-08T15:54:16.981Z,9.90
2023-01-08T15:56:43.781Z,9.80
2023-01-08T15:59:12.294Z,9.80
2023-01-08T16:01:39.044Z,9.80
2023-01-08T16:04:05.823Z,9.70
2023-01-08T16:06:32.527Z,9.70
2023-01-08T16:09:00.722Z,9.70
2023-01-08T16:11:27.468Z,9.60
2023-01-08T16:13:55.177Z,9.60
2023-01-08T16:16:22.374Z,9.50
2023-01-08T16:18:49.312Z,9.50
2023-01-08T16:21:16.044Z,9.50
2023-01-08T16:23:42.641Z,9.40
2023-01-08T16:26:13.723Z,9.40
2023-01-08T16:28:41.178Z,9.40
2023-01-08T16:31:08.782Z,9.38
2023-01-08T16:33:35.622Z,9.30
2023-01-08T16:36:06.757Z,9.30
2023-01-08T16:38:33.935Z,9.30
2023-01-08T16:41:00.920Z,9.30
2023-01-08T16:43:30.682Z,9.28
2023-01-08T16:46:03.020Z,9.20
2023-01-08T16:48:30.798Z,9.18
2023-01-08T16:51:05.301Z,9.10
2023-01-08T16:53:33.056Z,9.10
2023-01-08T16:56:00.332Z,9.00
2023-01-08T16:58:27.057Z,9.00
2023-01-08T17:00:53.673Z,8.98
2023-01-08T17:03:20.835Z,8.90
2023-01-08T17:05:48.739Z,8.82
2023-01-08T17:08:16.955Z,8.80
2023-01-08T17:10:44.020Z,8.70
2023-01-08T17:13:10.671Z,8.60
2023-01-08T17:15:39.057Z,8.60
2023-01-08T17:18:05.775Z,8.50
2023-01-08T17:20:32.387Z,8.50
2023-01-08T17:23:02.339Z,8.40
2023-01-08T17:25:28.950Z,8.40
2023-01-08T17:27:55.846Z,8.40
2023-01-08T17:30:22.452Z,8.30
2023-01-08T17:32:52.152Z,8.30
2023-01-08T17:35:18.669Z,8.30
2023-01-08T17:37:45.330Z,8.20
2023-01-08T17:40:13.195Z,8.20
2023-01-08T17:42:39.849Z,8.20
2023-01-08T17:45:07.649Z,8.20
2023-01-08T17:47:35.417Z,8.20
2023-01-08T17:50:03.420Z,8.20
2023-01-08T17:52:30.058Z,8.20
2023-01-08T17:54:56.560Z,8.20
2023-01-08T17:57:23.652Z,8.20
2023-01-08T17:59:50.378Z,8.20
2023-01-08T18:02:17.687Z,8.20
2023-01-08T18:04:45.477Z,8.20
2023-01-08T18:07:12.561Z,8.10
2023-01-08T18:09:39.170Z,8.10
2023-01-08T18:12:06.125Z,8.10
2023-01-08T18:14:36.086Z,8.10
2023-01-08T18:17:02.799Z,8.04
2023-01-08T18:19:29.306Z,8.00
2023-01-08T18:21:55.894Z,8.00
2023-01-08T18:24:22.652Z,8.00
2023-01-08T18:26:50.269Z,8.10
2023-01-08T18:29:16.820Z,8.10
2023-01-08T18:31:45.993Z,8.10
2023-01-08T18:34:14.935Z,8.12
2023-01-08T18:36:41.694Z,8.18
2023-01-08T18:39:08.324Z,8.16
2023-01-08T18:41:53.491Z,8.20
2023-01-08T18:44:20.122Z,8.20
2023-01-08T18:46:48.070Z,8.20
2023-01-08T18:49:15.972Z,8.20
2023-01-08T18:51:43.525Z,8.10
2023-01-08T18:54:11.603Z,8.10
2023-01-08T18:56:38.642Z,8.12
2023-01-08T18:59:07.136Z,8.20
2023-01-08T19:01:36.202Z,8.20
2023-01-08T19:04:03.910Z,8.18
2023-01-08T19:06:30.663Z,8.20
2023-01-08T19:08:59.145Z,8.20
2023-01-08T19:11:26.286Z,8.20
2023-01-08T19:13:59.097Z,8.20
2023-01-08T19:16:26.673Z,8.20
2023-01-08T19:18:53.971Z,8.20
2023-01-08T19:21:20.768Z,8.20
2023-01-08T19:23:48.760Z,8.20
2023-01-08T19:26:16.073Z,8.20
2023-01-08T19:28:43.457Z,8.22
2023-01-08T19:31:17.135Z,8.20
2023-01-08T19:33:46.373Z,8.20
2023-01-08T19:36:15.977Z,8.20
2023-01-08T19:38:44.650Z,8.22
2023-01-08T19:41:31.374Z,8.20
2023-01-08T19:43:58.871Z,8.20
2023-01-08T19:46:25.952Z,8.18
2023-01-08T19:48:55.938Z,8.10
2023-01-08T19:51:22.681Z,8.10
2023-01-08T19:53:49.336Z,8.10
2023-01-08T19:56:16.017Z,8.10
2023-01-08T19:58:43.167Z,8.10
2023-01-08T20:01:22.334Z,8.10
2023-01-08T20:03:49.507Z,8.10
2023-01-08T20:06:20.877Z,8.02
2023-01-08T20:08:54.455Z,8.00
2023-01-08T20:11:23.381Z,7.96
2023-01-08T20:13:51.485Z,7.90
2023-01-08T20:16:20.797Z,7.80
2023-01-08T20:18:48.243Z,7.80
2023-01-08T20:21:23.981Z,7.80
2023-01-08T20:24:00.548Z,7.80
2023-01-08T20:26:28.716Z,7.80
2023-01-08T20:28:57.337Z,7.82
2023-01-08T20:31:29.133Z,7.88
2023-01-08T20:34:00.450Z,7.90
2023-01-08T20:36:30.397Z,7.84
2023-01-08T20:39:00.696Z,7.86
2023-01-08T20:41:28.565Z,7.90
2023-01-08T20:43:56.168Z,7.90
2023-01-08T20:46:28.636Z,7.90
2023-01-08T20:48:57.395Z,7.90
2023-01-08T20:51:23.948Z,7.90
2023-01-08T20:53:50.590Z,7.90
2023-01-08T20:56:17.341Z,7.92
2023-01-08T20:58:47.119Z,7.90
2023-01-08T21:01:23.196Z,7.96
2023-01-08T21:03:55.179Z,8.00
2023-01-08T21:06:25.227Z,8.00
2023-01-08T21:08:55.511Z,7.94
2023-01-08T21:11:23.304Z,7.90
2023-01-08T21:13:50.992Z,7.90
2023-01-08T21:16:23.018Z,7.90
2023-01-08T21:18:51.237Z,7.90
2023-01-08T21:21:24.955Z,7.90
2023-01-08T21:23:51.984Z,7.90
2023-01-08T21:26:19.111Z,7.90
2023-01-08T21:28:48.251Z,7.90
2023-01-08T21:31:28.464Z,7.90
2023-01-08T21:33:57.985Z,7.90
2023-01-08T21:36:27.564Z,7.90
2023-01-08T21:38:57.178Z,7.88
2023-01-08T21:41:45.726Z,7.88
2023-01-08T21:44:35.540Z,7.82
2023-01-08T21:47:04.566Z,7.80
2023-01-08T21:49:31.911Z,7.80
2023-01-08T21:52:17.410Z,7.80
2023-01-08T21:54:44.016Z,7.80
2023-01-08T21:57:10.736Z,7.80
2023-01-08T21:59:37.544Z,7.80
2023-01-08T22:02:05.302Z,7.70
2023-01-08T22:04:32.655Z,7.70
2023-01-08T22:06:59.584Z,7.70
2023-01-08T22:09:26.178Z,7.72
2023-01-08T22:11:56.031Z,7.80
2023-01-08T22:14:23.338Z,7.80
2023-01-08T22:16:50.757Z,7.80
2023-01-08T22:19:17.539Z,7.80
2023-01-08T22:21:44.505Z,7.86
2023-01-08T22:24:11.209Z,7.88
2023-01-08T22:26:38.083Z,7.90
2023-01-08T22:29:06.100Z,7.90
2023-01-08T22:31:33.987Z,7.80
2023-01-08T22:34:00.815Z,7.68
2023-01-08T22:36:27.420Z,7.60
2023-01-08T22:38:54.037Z,7.60
2023-01-08T22:41:23.930Z,7.60
2023-01-08T22:43:58.231Z,7.60
2023-01-08T22:46:25.620Z,7.60
2023-01-08T22:48:52.362Z,7.60
2023-01-08T22:51:28.577Z,7.60
2023-01-08T22:53:57.481Z,7.60
2023-01-08T22:56:24.398Z,7.60
2023-01-08T22:58:52.151Z,7.68
2023-01-08T23:01:23.592Z,7.70
2023-01-08T23:03:52.934Z,7.60
2023-01-08T23:06:22.124Z,7.60
2023-01-08T23:08:50.104Z,7.70
2023-01-08T23:11:18.941Z,7.70
2023-01-08T23:13:46.642Z,7.70
2023-01-08T23:16:16.034Z,7.70
2023-01-08T23:18:42.769Z,7.72
2023-01-08T23:21:13.658Z,7.70
2023-01-08T23:23:40.820Z,7.70
2023-01-08T23:26:16.083Z,7.70
2023-01-08T23:28:42.738Z,7.70
2023-01-08T23:31:14.086Z,7.70
2023-01-08T23:33:40.759Z,7.70
2023-01-08T23:36:08.320Z,7.70
2023-01-08T23:38:35.078Z,7.68
2023-01-08T23:41:07.124Z,7.60
2023-01-08T23:43:34.016Z,7.60
2023-01-08T23:46:05.663Z,7.60
2023-01-08T23:48:32.632Z,7.60
2023-01-08T23:50:59.421Z,7.60
2023-01-08T23:53:26.570Z,7.60
2023-01-08T23:55:53.210Z,7.60
2023-01-08T23:58:20.173Z,7.60
